KCBM/CBM METAR and TAF weather

Enter ICAO airport designator
Station Type Date Time Source
KCBM METAR 2021/05/17 21:56 UTC NOAA

KCBM 172156Z AUTO 13008KT 10SM FEW050 SCT150 26/17 A3003 RMK AO2 SLP170 T02590167 $


Station Type Date Time Source
KCBM Decoded METAR 2021/05/17 21:56 UTC NOAA

Columbus Air Force Base, MS, United States (KCBM) 33-39N 088-27W
May 17, 2021 - 05:56 PM EDT / 2021.05.17 2156 UTC
Wind: from the SE (130 degrees) at 9 MPH (8 KT):0
Visibility: 10 mile(s):0
Sky conditions: partly cloudy
Temperature: 78.6 F (25.9 C)
Dew Point: 62.1 F (16.7 C)
Relative Humidity: 56%
Pressure (altimeter): 30.03 in. Hg (1016 hPa)
ob: KCBM 172156Z AUTO 13008KT 10SM FEW050 SCT150 26/17 A3003 RMK AO2 SLP170 T02590167
cycle: 22

Station Type Date Time Source
KCBM TAF 2021/05/17 17:59 UTC NOAA

TAF KCBM 171700Z 1717/1823 14010KT 9999 BKN100 QNH3000INS
BECMG 1720/1721 18006KT 9999 BKN050 QNH3001INS
BECMG 1801/1802 13006KT 9999 VCSH BKN025 QNH3004INS
BECMG 1809/1810 13006KT 9999 NSW BKN060 510023 QNH3003INS
BECMG 1817/1818 15012G18KT 9999 BKN070 510033 QNH3002INS
BECMG 1822/1823 14009KT 9999 BKN055 QNH3001INS TX26/1719Z TN18/1812Z

Example: see airport list